createdAt,value
2022-09-21T00:01:15.738Z,10.47
2022-09-21T00:03:45.711Z,10.58
2022-09-21T00:06:18.269Z,10.58
2022-09-21T00:08:46.555Z,10.20
2022-09-21T00:11:15.598Z,9.62
2022-09-21T00:13:46.752Z,9.10
2022-09-21T00:16:16.451Z,9.33
2022-09-21T00:18:45.619Z,9.88
2022-09-21T00:21:15.963Z,10.13
2022-09-21T00:23:44.033Z,9.64
2022-09-21T00:26:14.649Z,9.35
2022-09-21T00:28:44.443Z,9.45
2022-09-21T00:31:14.369Z,8.99
2022-09-21T00:33:43.513Z,9.28
2022-09-21T00:36:14.816Z,9.27
2022-09-21T00:38:42.705Z,9.27
2022-09-21T00:41:12.236Z,9.30
2022-09-21T00:43:44.230Z,9.26
2022-09-21T00:46:16.606Z,9.39
2022-09-21T00:48:46.828Z,9.43
2022-09-21T00:51:16.462Z,9.55
2022-09-21T00:53:49.040Z,9.01
2022-09-21T00:56:20.287Z,9.54
2022-09-21T00:58:52.123Z,9.54
2022-09-21T01:01:20.791Z,9.72
2022-09-21T01:03:50.048Z,9.85
2022-09-21T01:06:21.454Z,9.58
2022-09-21T01:08:53.477Z,9.39
2022-09-21T01:11:30.595Z,9.55
2022-09-21T01:14:22.929Z,9.64
2022-09-21T01:17:02.384Z,9.38
2022-09-21T01:20:02.631Z,9.53
2022-09-21T01:22:47.178Z,9.67
2022-09-21T01:25:28.909Z,9.76
2022-09-21T01:28:10.139Z,9.67
2022-09-21T01:30:44.603Z,9.74
2022-09-21T01:33:18.254Z,9.38
2022-09-21T01:35:51.277Z,8.93
2022-09-21T01:38:26.755Z,9.26
2022-09-21T01:41:00.226Z,9.05
2022-09-21T01:43:32.371Z,9.27
2022-09-21T01:46:04.001Z,9.49
2022-09-21T01:48:35.738Z,9.27
2022-09-21T01:51:10.248Z,8.55
2022-09-21T01:53:42.056Z,8.97
2022-09-21T01:56:14.814Z,9.31
2022-09-21T01:58:46.712Z,9.49
2022-09-21T02:01:20.597Z,9.44
2022-09-21T02:03:54.043Z,9.02
2022-09-21T02:06:22.554Z,8.07
2022-09-21T02:08:50.301Z,8.36
2022-09-21T02:11:17.928Z,8.76
2022-09-21T02:13:48.006Z,9.08
2022-09-21T02:16:35.453Z,9.23
2022-09-21T02:19:13.430Z,9.23
2022-09-21T02:21:54.838Z,8.54
2022-09-21T02:24:33.658Z,8.96
2022-09-21T02:27:07.036Z,9.19
2022-09-21T02:29:46.322Z,9.04
2022-09-21T02:32:23.686Z,8.57
2022-09-21T02:34:55.225Z,8.93
2022-09-21T02:37:31.162Z,9.05
2022-09-21T02:40:04.348Z,9.12
2022-09-21T02:42:36.135Z,9.21
2022-09-21T02:45:09.199Z,8.62
2022-09-21T02:47:47.434Z,8.18
2022-09-21T02:50:21.212Z,8.75
2022-09-21T02:52:48.995Z,9.03
2022-09-21T02:55:18.806Z,9.14
2022-09-21T02:57:49.184Z,8.50
2022-09-21T03:00:18.028Z,7.53
2022-09-21T03:02:47.102Z,7.29
2022-09-21T03:05:16.022Z,8.14
2022-09-21T03:07:43.717Z,7.15
2022-09-21T03:10:11.778Z,6.90
2022-09-21T03:12:39.601Z,6.85
2022-09-21T03:15:07.818Z,6.56
2022-09-21T03:17:35.640Z,7.04
2022-09-21T03:20:05.210Z,6.95
2022-09-21T03:22:32.848Z,6.97
2022-09-21T03:25:00.528Z,6.95
2022-09-21T03:27:28.150Z,6.85
2022-09-21T03:29:59.981Z,6.84
2022-09-21T03:32:29.583Z,6.64
2022-09-21T03:34:57.259Z,7.44
2022-09-21T03:37:26.512Z,7.59
2022-09-21T03:39:54.172Z,7.07
2022-09-21T03:42:21.921Z,7.21
2022-09-21T03:44:49.585Z,7.83
2022-09-21T03:47:17.240Z,7.74
2022-09-21T03:49:45.121Z,8.02
2022-09-21T03:52:12.810Z,7.91
2022-09-21T03:54:41.846Z,8.08
2022-09-21T03:57:09.832Z,8.21
2022-09-21T03:59:37.521Z,8.14
2022-09-21T04:02:05.484Z,8.23
2022-09-21T04:04:33.254Z,8.35
2022-09-21T04:07:01.578Z,7.78
2022-09-21T04:09:29.300Z,7.95
2022-09-21T04:11:58.350Z,7.56
2022-09-21T04:14:26.294Z,7.56
2022-09-21T04:16:54.086Z,7.99
2022-09-21T04:19:22.331Z,7.99
2022-09-21T04:21:51.374Z,8.25
2022-09-21T04:24:19.653Z,8.41
2022-09-21T04:26:47.710Z,8.44
2022-09-21T04:29:17.372Z,8.47
2022-09-21T04:31:46.011Z,8.57
2022-09-21T04:34:15.052Z,8.49
2022-09-21T04:36:43.575Z,8.48
2022-09-21T04:39:11.308Z,8.50
2022-09-21T04:41:39.103Z,8.33
2022-09-21T04:44:06.848Z,8.34
2022-09-21T04:46:36.073Z,8.37
2022-09-21T04:49:03.921Z,8.37
2022-09-21T04:51:31.754Z,8.40
2022-09-21T04:54:00.093Z,8.45
2022-09-21T04:56:30.258Z,8.41
2022-09-21T04:58:58.335Z,8.25
2022-09-21T05:01:29.164Z,8.03
2022-09-21T05:04:01.708Z,7.64
2022-09-21T05:06:29.948Z,6.90
2022-09-21T05:09:15.086Z,6.59
2022-09-21T05:11:42.966Z,6.57
2022-09-21T05:14:11.438Z,7.31
2022-09-21T05:16:41.703Z,7.63
2022-09-21T05:19:11.026Z,7.91
2022-09-21T05:21:40.956Z,8.08
2022-09-21T05:24:09.143Z,7.86
2022-09-21T05:26:36.939Z,7.84
2022-09-21T05:29:05.648Z,7.90
2022-09-21T05:31:42.280Z,8.03
2022-09-21T05:34:26.625Z,8.25
2022-09-21T05:37:02.465Z,8.40
2022-09-21T05:39:30.891Z,8.33
2022-09-21T05:41:59.051Z,7.99
2022-09-21T05:44:27.364Z,7.93
2022-09-21T05:47:00.664Z,8.24
2022-09-21T05:49:46.005Z,8.41
2022-09-21T05:52:21.848Z,8.03
2022-09-21T05:55:02.967Z,8.42
2022-09-21T05:57:43.325Z,8.65
2022-09-21T06:00:18.656Z,8.81
2022-09-21T06:03:10.855Z,8.41
2022-09-21T06:05:43.720Z,8.30
2022-09-21T06:08:13.680Z,8.74
2022-09-21T06:10:42.065Z,9.04
2022-09-21T06:13:10.204Z,9.26
2022-09-21T06:15:38.492Z,9.38
2022-09-21T06:18:12.142Z,9.50
2022-09-21T06:20:43.424Z,9.51
2022-09-21T06:23:13.226Z,9.51
2022-09-21T06:25:40.999Z,9.68
2022-09-21T06:28:10.896Z,9.68
2022-09-21T06:30:39.429Z,9.84
2022-09-21T06:33:08.169Z,8.39
2022-09-21T06:35:37.684Z,8.24
2022-09-21T06:38:08.189Z,7.93
2022-09-21T06:40:37.820Z,8.22
2022-09-21T06:43:06.842Z,8.93
2022-09-21T06:45:34.720Z,9.49
2022-09-21T06:48:02.838Z,9.80
2022-09-21T06:50:30.775Z,9.65
2022-09-21T06:53:01.490Z,9.30
2022-09-21T06:55:30.677Z,9.07
2022-09-21T06:58:01.803Z,9.30
2022-09-21T07:00:30.335Z,10.04
2022-09-21T07:02:58.401Z,10.42
2022-09-21T07:05:26.592Z,10.71
2022-09-21T07:07:58.557Z,10.88
2022-09-21T07:10:30.375Z,9.76
2022-09-21T07:13:04.259Z,10.35
2022-09-21T07:15:32.101Z,11.19
2022-09-21T07:18:07.452Z,11.63
2022-09-21T07:20:35.275Z,11.68
2022-09-21T07:23:11.348Z,12.01
2022-09-21T07:25:40.573Z,12.35
2022-09-21T07:28:08.810Z,11.15
2022-09-21T07:30:37.667Z,11.90
2022-09-21T07:33:06.253Z,12.65
2022-09-21T07:35:35.247Z,13.13
2022-09-21T07:38:05.827Z,13.31
2022-09-21T07:40:33.843Z,12.89
2022-09-21T07:43:03.804Z,12.66
2022-09-21T07:45:32.168Z,13.34
2022-09-21T07:48:04.451Z,13.47
2022-09-21T07:50:33.666Z,12.98
2022-09-21T07:53:01.686Z,14.12
2022-09-21T07:55:29.880Z,14.88
2022-09-21T07:58:15.110Z,14.45
2022-09-21T08:00:44.416Z,15.34
2022-09-21T08:03:12.631Z,16.05
2022-09-21T08:05:40.483Z,15.91
2022-09-21T08:08:08.954Z,16.31
2022-09-21T08:10:37.287Z,15.42
2022-09-21T08:13:05.087Z,16.52
2022-09-21T08:15:50.164Z,16.10
2022-09-21T08:18:19.553Z,16.38
2022-09-21T08:20:55.350Z,17.49
2022-09-21T08:23:23.443Z,16.71
2022-09-21T08:25:51.296Z,15.53
2022-09-21T08:28:19.653Z,14.84
2022-09-21T08:30:47.464Z,15.74
2022-09-21T08:33:15.401Z,16.67
2022-09-21T08:35:44.506Z,14.42
2022-09-21T08:38:12.357Z,16.70
2022-09-21T08:40:42.248Z,16.31
2022-09-21T08:43:13.740Z,16.46
2022-09-21T08:45:45.321Z,17.37
2022-09-21T08:48:23.975Z,17.95
2022-09-21T08:50:58.448Z,17.47
2022-09-21T08:53:34.241Z,18.65
2022-09-21T08:56:02.931Z,18.39
2022-09-21T08:58:32.484Z,18.83
2022-09-21T09:01:15.612Z,19.26
2022-09-21T09:04:05.030Z,19.27
2022-09-21T09:06:44.698Z,19.00
2022-09-21T09:09:27.725Z,19.37
2022-09-21T09:12:16.388Z,20.13
2022-09-21T09:14:56.933Z,17.77
2022-09-21T09:17:39.142Z,19.40
2022-09-21T09:20:12.369Z,19.97
2022-09-21T09:22:46.500Z,19.43
2022-09-21T09:25:21.149Z,20.07
2022-09-21T09:27:54.345Z,20.05
2022-09-21T09:30:25.459Z,20.48
2022-09-21T09:32:59.383Z,18.30
2022-09-21T09:35:29.817Z,20.11
2022-09-21T09:38:03.800Z,19.54
2022-09-21T09:40:57.278Z,20.77
2022-09-21T09:43:39.609Z,20.60
2022-09-21T09:46:15.356Z,20.31
2022-09-21T09:49:02.212Z,19.77
2022-09-21T09:51:30.388Z,19.41
2022-09-21T09:54:01.143Z,20.87
2022-09-21T09:56:29.237Z,17.68
2022-09-21T09:59:03.445Z,17.01
2022-09-21T10:01:42.672Z,16.50
2022-09-21T10:04:12.842Z,18.91
2022-09-21T10:06:46.082Z,19.75
2022-09-21T10:09:24.722Z,18.46
2022-09-21T10:11:53.701Z,17.69
2022-09-21T10:14:24.944Z,18.32
2022-09-21T10:16:54.412Z,18.74
2022-09-21T10:19:25.321Z,19.87
2022-09-21T10:21:58.516Z,17.34
2022-09-21T10:24:30.735Z,17.28
2022-09-21T10:27:06.235Z,18.16
2022-09-21T10:29:41.671Z,19.05
2022-09-21T10:32:24.669Z,19.39
2022-09-21T10:35:16.318Z,17.05
2022-09-21T10:37:46.343Z,18.00
2022-09-21T10:40:27.282Z,17.24
2022-09-21T10:42:56.352Z,19.03
2022-09-21T10:45:26.718Z,20.23
2022-09-21T10:47:57.588Z,20.06
2022-09-21T10:50:29.045Z,20.66
2022-09-21T10:53:01.285Z,20.21
2022-09-21T10:55:32.170Z,20.40
2022-09-21T10:58:00.904Z,21.66
2022-09-21T11:00:36.389Z,20.40
2022-09-21T11:03:28.582Z,18.99
2022-09-21T11:05:59.688Z,19.15
2022-09-21T11:08:34.840Z,20.78
2022-09-21T11:11:14.819Z,21.72
2022-09-21T11:13:50.894Z,21.09
2022-09-21T11:16:25.604Z,21.69
2022-09-21T11:18:59.383Z,20.75
2022-09-21T11:21:39.014Z,21.96
2022-09-21T11:24:21.522Z,21.89
2022-09-21T11:26:57.126Z,22.06
2022-09-21T11:29:30.417Z,22.43
2022-09-21T11:32:16.247Z,20.83
2022-09-21T11:35:04.238Z,22.38
2022-09-21T11:37:46.201Z,21.33
2022-09-21T11:40:28.364Z,20.63
2022-09-21T11:43:10.002Z,21.64
2022-09-21T11:45:59.426Z,21.97
2022-09-21T11:48:43.759Z,20.88
2022-09-21T11:51:25.652Z,20.05
2022-09-21T11:54:21.928Z,21.55
2022-09-21T11:56:53.206Z,19.82
2022-09-21T11:59:50.791Z,19.55
2022-09-21T12:02:44.288Z,20.86
2022-09-21T12:05:21.184Z,21.58
2022-09-21T12:08:18.447Z,22.26
2022-09-21T12:10:56.192Z,20.85
2022-09-21T12:13:37.176Z,20.65
2022-09-21T12:16:14.303Z,19.22
2022-09-21T12:18:56.276Z,19.18
2022-09-21T12:21:28.515Z,20.10
2022-09-21T12:23:58.121Z,20.96
2022-09-21T12:26:30.696Z,20.28
2022-09-21T12:29:03.427Z,20.78
2022-09-21T12:31:39.391Z,22.16
2022-09-21T12:34:14.707Z,22.21
2022-09-21T12:36:53.598Z,21.56
2022-09-21T12:39:27.166Z,19.63
2022-09-21T12:42:02.080Z,19.44
2022-09-21T12:44:51.806Z,20.86
2022-09-21T12:47:28.279Z,20.68
2022-09-21T12:50:00.759Z,21.36
2022-09-21T12:52:29.211Z,21.16
2022-09-21T12:55:05.914Z,21.77
2022-09-21T12:58:10.770Z,21.41
2022-09-21T13:00:43.509Z,22.64
2022-09-21T13:03:19.904Z,21.89
2022-09-21T13:06:06.468Z,19.22
2022-09-21T13:08:37.590Z,21.31
2022-09-21T13:11:07.916Z,20.20
2022-09-21T13:13:39.584Z,20.44
2022-09-21T13:16:08.594Z,21.25
2022-09-21T13:18:40.393Z,21.48
2022-09-21T13:21:19.969Z,20.92
2022-09-21T13:23:55.882Z,19.88
2022-09-21T13:26:34.654Z,20.30
2022-09-21T13:29:30.251Z,21.15
2022-09-21T13:32:00.523Z,20.00
2022-09-21T13:34:36.079Z,20.29
2022-09-21T13:37:34.045Z,18.79
2022-09-21T13:40:41.879Z,18.58
2022-09-21T13:43:23.439Z,20.08
2022-09-21T13:45:55.608Z,20.45
2022-09-21T13:48:29.480Z,19.78
2022-09-21T13:51:07.357Z,19.37
2022-09-21T13:53:40.860Z,19.37
2022-09-21T13:56:17.493Z,19.99
2022-09-21T13:58:47.928Z,20.33
2022-09-21T14:01:45.688Z,18.81
2022-09-21T14:04:21.635Z,18.66
2022-09-21T14:06:53.348Z,20.07
2022-09-21T14:09:25.476Z,19.72
2022-09-21T14:12:00.173Z,19.72
2022-09-21T14:14:31.472Z,18.55
2022-09-21T14:17:00.208Z,18.42
2022-09-21T14:20:03.753Z,18.44
2022-09-21T14:22:38.888Z,18.83
2022-09-21T14:25:27.517Z,19.29
2022-09-21T14:28:00.250Z,19.28
2022-09-21T14:30:32.040Z,19.37
2022-09-21T14:33:13.238Z,18.22
2022-09-21T14:35:43.352Z,18.62
2022-09-21T14:38:20.906Z,18.50
2022-09-21T14:40:51.331Z,19.02
2022-09-21T14:43:35.135Z,19.57
2022-09-21T14:46:17.101Z,18.80
2022-09-21T14:49:00.080Z,18.93
2022-09-21T14:51:38.129Z,18.72
2022-09-21T14:54:32.750Z,19.34
2022-09-21T14:57:15.567Z,19.16
2022-09-21T14:59:58.788Z,19.70
2022-09-21T15:02:28.522Z,19.48
2022-09-21T15:05:05.153Z,19.79
2022-09-21T15:07:58.042Z,19.58
2022-09-21T15:11:02.601Z,19.50
2022-09-21T15:13:46.520Z,19.05
2022-09-21T15:16:35.246Z,18.10
2022-09-21T15:19:13.798Z,18.68
2022-09-21T15:21:44.403Z,17.91
2022-09-21T15:24:20.253Z,18.61
2022-09-21T15:26:51.499Z,18.84
2022-09-21T15:29:27.613Z,18.81
2022-09-21T15:31:56.339Z,18.99
2022-09-21T15:34:24.882Z,18.69
2022-09-21T15:36:53.310Z,18.64
2022-09-21T15:39:26.830Z,18.84
2022-09-21T15:42:19.671Z,18.50
2022-09-21T15:44:50.484Z,18.31
2022-09-21T15:47:24.085Z,18.61
2022-09-21T15:49:53.914Z,19.02
2022-09-21T15:52:28.171Z,18.74
2022-09-21T15:55:00.307Z,18.00
2022-09-21T15:57:38.863Z,17.45
2022-09-21T16:00:18.756Z,17.71
2022-09-21T16:03:04.172Z,17.27
2022-09-21T16:05:34.433Z,16.92
2022-09-21T16:08:07.603Z,16.84
2022-09-21T16:10:40.963Z,16.75
2022-09-21T16:13:36.406Z,17.20
2022-09-21T16:16:06.772Z,17.19
2022-09-21T16:18:43.148Z,17.36
2022-09-21T16:21:20.385Z,17.50
2022-09-21T16:23:49.313Z,17.05
2022-09-21T16:26:23.419Z,16.54
2022-09-21T16:28:59.411Z,17.10
2022-09-21T16:31:32.951Z,17.27
2022-09-21T16:34:05.376Z,16.88
2022-09-21T16:36:42.982Z,17.24
2022-09-21T16:39:15.514Z,16.53
2022-09-21T16:42:02.210Z,16.90
2022-09-21T16:44:40.216Z,16.79
2022-09-21T16:47:15.326Z,16.74
2022-09-21T16:49:43.847Z,16.13
2022-09-21T16:52:11.875Z,16.41
2022-09-21T16:54:39.717Z,16.31
2022-09-21T16:57:08.142Z,16.31
2022-09-21T16:59:37.459Z,16.07
2022-09-21T17:02:05.908Z,16.27
2022-09-21T17:04:36.719Z,16.06
2022-09-21T17:07:05.954Z,16.33
2022-09-21T17:09:35.844Z,16.44
2022-09-21T17:12:06.326Z,16.39
2022-09-21T17:14:35.921Z,16.03
2022-09-21T17:17:08.327Z,15.99
2022-09-21T17:19:36.805Z,15.58
2022-09-21T17:22:06.737Z,15.25
2022-09-21T17:24:49.783Z,15.47
2022-09-21T17:27:19.898Z,15.34
2022-09-21T17:29:49.200Z,15.00
2022-09-21T17:32:20.783Z,15.36
2022-09-21T17:34:58.580Z,15.09
2022-09-21T17:37:26.814Z,15.20
2022-09-21T17:39:54.773Z,14.86
2022-09-21T17:42:25.110Z,14.66
2022-09-21T17:45:12.336Z,14.76
2022-09-21T17:47:42.574Z,14.58
2022-09-21T17:50:20.096Z,14.43
2022-09-21T17:53:06.237Z,14.67
2022-09-21T17:55:34.671Z,14.72
2022-09-21T17:58:28.161Z,14.49
2022-09-21T18:01:02.851Z,14.29
2022-09-21T18:03:35.810Z,14.51
2022-09-21T18:10:25.002Z,14.69
2022-09-21T18:13:17.008Z,14.93
2022-09-21T18:15:56.637Z,14.90
2022-09-21T18:18:42.765Z,14.73
2022-09-21T18:21:17.765Z,15.13
2022-09-21T18:24:02.312Z,15.35
2022-09-21T18:26:30.851Z,15.36
2022-09-21T18:28:59.372Z,15.31
2022-09-21T18:31:42.782Z,14.86
2022-09-21T18:34:34.889Z,13.68
2022-09-21T18:37:15.072Z,13.42
2022-09-21T18:39:55.632Z,14.38
2022-09-21T18:42:32.020Z,14.59
2022-09-21T18:45:05.143Z,14.41
2022-09-21T18:47:41.124Z,13.91
2022-09-21T18:50:23.760Z,14.34
2022-09-21T18:52:58.288Z,14.43
2022-09-21T18:55:32.788Z,14.19
2022-09-21T18:58:01.513Z,14.06
2022-09-21T19:00:32.724Z,13.96
2022-09-21T19:03:18.880Z,13.48
2022-09-21T19:06:13.748Z,13.31
2022-09-21T19:08:50.335Z,12.78
2022-09-21T19:11:23.147Z,13.20
2022-09-21T19:14:01.490Z,13.75
2022-09-21T19:16:34.446Z,13.65
2022-09-21T19:19:15.314Z,13.78
2022-09-21T19:21:51.949Z,13.97
2022-09-21T19:24:27.095Z,13.91
2022-09-21T19:27:08.605Z,14.00
2022-09-21T19:29:47.456Z,13.99
2022-09-21T19:32:17.546Z,13.85
2022-09-21T19:34:45.933Z,13.89
2022-09-21T19:37:15.313Z,13.82
2022-09-21T19:39:43.415Z,13.25
2022-09-21T19:42:26.646Z,12.51
2022-09-21T19:45:10.888Z,13.18
2022-09-21T19:47:47.736Z,13.50
2022-09-21T19:50:18.899Z,11.85
2022-09-21T19:52:48.982Z,12.65
2022-09-21T19:55:36.928Z,12.17
2022-09-21T19:58:23.247Z,12.75
2022-09-21T20:00:55.614Z,12.87
2022-09-21T20:03:31.550Z,12.18
2022-09-21T20:06:05.711Z,12.22
2022-09-21T20:08:41.317Z,12.25
2022-09-21T20:11:14.646Z,12.30
2022-09-21T20:14:06.236Z,12.71
2022-09-21T20:16:50.884Z,12.89
2022-09-21T20:19:30.906Z,12.97
2022-09-21T20:22:04.862Z,13.02
2022-09-21T20:24:41.451Z,13.01
2022-09-21T20:27:21.755Z,13.01
2022-09-21T20:29:49.461Z,12.95
2022-09-21T20:32:17.341Z,12.84
2022-09-21T20:34:45.102Z,12.04
2022-09-21T20:37:13.541Z,11.62
2022-09-21T20:39:42.641Z,11.14
2022-09-21T20:42:16.119Z,11.69
2022-09-21T20:44:43.838Z,11.96
2022-09-21T20:47:11.898Z,11.51
2022-09-21T20:49:39.712Z,11.88
2022-09-21T20:52:09.198Z,11.85
2022-09-21T20:54:37.238Z,10.87
2022-09-21T20:57:06.835Z,11.01
2022-09-21T20:59:34.571Z,11.20
2022-09-21T21:02:02.380Z,10.76
2022-09-21T21:04:30.369Z,11.26
2022-09-21T21:07:00.417Z,11.69
2022-09-21T21:09:28.464Z,11.76
2022-09-21T21:11:56.485Z,11.87
2022-09-21T21:14:26.070Z,11.84
2022-09-21T21:16:54.064Z,11.75
2022-09-21T21:19:24.271Z,11.25
2022-09-21T21:21:51.975Z,10.78
2022-09-21T21:24:37.073Z,9.87
2022-09-21T21:27:05.376Z,10.80
2022-09-21T21:29:35.066Z,10.90
2022-09-21T21:32:03.975Z,10.98
2022-09-21T21:34:31.821Z,11.02
2022-09-21T21:36:59.503Z,10.77
2022-09-21T21:39:27.279Z,10.24
2022-09-21T21:41:55.012Z,10.15
2022-09-21T21:44:24.877Z,10.22
2022-09-21T21:46:54.724Z,10.75
2022-09-21T21:49:22.492Z,10.91
2022-09-21T21:51:50.511Z,10.87
2022-09-21T21:54:19.290Z,10.80
2022-09-21T21:56:49.210Z,10.96
2022-09-21T21:59:19.300Z,10.52
2022-09-21T22:01:47.800Z,10.58
2022-09-21T22:04:17.225Z,10.44
2022-09-21T22:06:44.939Z,10.54
2022-09-21T22:09:12.848Z,9.89
2022-09-21T22:11:40.580Z,10.47
2022-09-21T22:14:08.644Z,10.38
2022-09-21T22:16:37.723Z,10.62
2022-09-21T22:19:06.992Z,10.70
2022-09-21T22:21:41.137Z,10.63
2022-09-21T22:24:10.069Z,10.51
2022-09-21T22:26:40.631Z,10.81
2022-09-21T22:29:10.621Z,10.81
2022-09-21T22:31:41.226Z,10.70
2022-09-21T22:34:10.033Z,9.52
2022-09-21T22:36:39.873Z,9.19
2022-09-21T22:39:09.047Z,9.24
2022-09-21T22:41:38.617Z,9.75
2022-09-21T22:44:06.763Z,10.00
2022-09-21T22:46:37.552Z,10.22
2022-09-21T22:49:05.629Z,10.37
2022-09-21T22:51:33.849Z,10.56
2022-09-21T22:54:02.963Z,10.49
2022-09-21T22:56:32.459Z,10.30
2022-09-21T22:59:02.304Z,10.46
2022-09-21T23:01:33.501Z,9.95
2022-09-21T23:04:03.415Z,9.43
2022-09-21T23:06:34.642Z,9.96
2022-09-21T23:09:06.869Z,10.08
2022-09-21T23:11:39.350Z,10.15
2022-09-21T23:14:07.528Z,9.75
2022-09-21T23:16:35.906Z,9.30
2022-09-21T23:19:03.679Z,9.35
2022-09-21T23:21:31.565Z,9.44
2022-09-21T23:24:01.554Z,9.81
2022-09-21T23:26:33.936Z,9.34
2022-09-21T23:29:04.250Z,9.22
2022-09-21T23:31:33.606Z,9.54
2022-09-21T23:34:07.293Z,9.84
2022-09-21T23:36:36.815Z,9.85
2022-09-21T23:39:05.042Z,9.44
2022-09-21T23:41:35.640Z,9.64
2022-09-21T23:44:04.666Z,9.14
2022-09-21T23:46:37.075Z,9.43
2022-09-21T23:49:05.628Z,8.81
2022-09-21T23:51:33.392Z,8.87
2022-09-21T23:54:01.855Z,8.92
2022-09-21T23:56:30.235Z,9.16
2022-09-21T23:59:00.215Z,9.09
